createdAt,value
2022-12-08T00:15:31.540Z,50.54
2022-12-08T00:37:07.337Z,50.87
2022-12-08T01:09:39.496Z,50.66
2022-12-08T01:12:07.791Z,51.10
2022-12-08T01:19:11.327Z,50.47
2022-12-08T01:41:04.851Z,50.72
2022-12-08T01:44:00.398Z,50.70
2022-12-08T01:52:36.549Z,50.76
2022-12-08T02:00:47.615Z,51.06
2022-12-08T02:13:06.699Z,50.51
2022-12-08T02:20:39.324Z,50.65
2022-12-08T02:51:51.447Z,50.33
2022-12-08T02:59:10.530Z,49.87
2022-12-08T03:06:46.617Z,49.94
2022-12-08T03:27:45.687Z,50.23
2022-12-08T03:44:28.432Z,49.83
2022-12-08T03:51:48.317Z,49.80
2022-12-08T04:00:24.504Z,49.38
2022-12-08T04:07:38.421Z,49.59
2022-12-08T04:14:50.688Z,49.35
2022-12-08T04:41:06.320Z,48.92
2022-12-08T04:58:26.660Z,49.38
2022-12-08T05:05:46.720Z,49.28
2022-12-08T05:22:52.515Z,48.58
2022-12-08T06:10:55.632Z,48.31
2022-12-08T06:23:38.837Z,47.91
2022-12-08T06:30:59.477Z,47.89
2022-12-08T06:42:58.581Z,47.46
2022-12-08T06:50:13.680Z,47.46
2022-12-08T06:52:51.777Z,47.56
2022-12-08T06:55:50.808Z,47.62
2022-12-08T06:58:11.657Z,47.35
2022-12-08T07:00:39.720Z,47.89
2022-12-08T07:03:08.929Z,47.41
2022-12-08T07:05:36.997Z,47.23
2022-12-08T07:08:06.982Z,47.39
2022-12-08T07:10:34.862Z,47.23
2022-12-08T07:13:02.291Z,47.18
2022-12-08T07:15:29.751Z,47.50
2022-12-08T07:18:00.029Z,47.30
2022-12-08T07:20:28.281Z,47.11
2022-12-08T07:22:56.018Z,47.53
2022-12-08T07:25:23.691Z,47.28
2022-12-08T07:27:52.697Z,47.38
2022-12-08T07:30:20.589Z,47.32
2022-12-08T07:32:48.024Z,47.18
2022-12-08T07:35:15.559Z,46.62
2022-12-08T07:37:43.079Z,47.15
2022-12-08T07:40:11.104Z,47.06
2022-12-08T07:42:38.541Z,47.06
2022-12-08T07:45:06.608Z,47.18
2022-12-08T07:47:34.083Z,47.17
2022-12-08T07:50:01.732Z,46.77
2022-12-08T07:52:29.388Z,46.87
2022-12-08T07:54:56.807Z,46.64
2022-12-08T07:57:24.213Z,46.69
2022-12-08T07:59:51.639Z,46.92
2022-12-08T08:02:25.363Z,46.58
2022-12-08T08:04:53.846Z,47.05
2022-12-08T08:07:21.483Z,46.64
2022-12-08T08:09:48.994Z,46.51
2022-12-08T08:12:31.179Z,46.60
2022-12-08T08:15:01.222Z,46.91
2022-12-08T08:17:30.060Z,46.67
2022-12-08T08:19:57.696Z,46.15
2022-12-08T08:22:26.349Z,46.70
2022-12-08T08:24:54.345Z,46.27
2022-12-08T08:27:22.560Z,46.48
2022-12-08T08:29:50.007Z,46.57
2022-12-08T08:32:17.452Z,46.56
2022-12-08T08:34:44.965Z,46.29
2022-12-08T08:37:12.567Z,46.33
2022-12-08T08:39:40.029Z,46.55
2022-12-08T08:42:07.514Z,46.56
2022-12-08T08:44:34.901Z,46.28
2022-12-08T08:47:02.359Z,46.23
2022-12-08T08:49:29.758Z,46.43
2022-12-08T08:51:57.208Z,46.49
2022-12-08T08:54:24.690Z,45.78
2022-12-08T08:56:52.731Z,46.06
2022-12-08T08:59:20.166Z,45.96
2022-12-08T09:01:47.668Z,45.98
2022-12-08T09:04:15.294Z,45.92
2022-12-08T09:06:44.184Z,45.65
2022-12-08T09:09:12.294Z,46.19
2022-12-08T09:11:40.286Z,45.78
2022-12-08T09:14:07.749Z,46.13
2022-12-08T09:16:40.411Z,45.79
2022-12-08T09:19:09.721Z,46.01
2022-12-08T09:21:37.252Z,45.94
2022-12-08T09:24:04.834Z,46.01
2022-12-08T09:26:32.280Z,45.88
2022-12-08T09:28:59.781Z,45.97
2022-12-08T09:31:27.371Z,46.07
2022-12-08T09:33:55.086Z,45.64
2022-12-08T09:36:22.627Z,45.53
2022-12-08T09:38:51.149Z,45.49
2022-12-08T09:41:50.113Z,45.88
2022-12-08T09:44:57.240Z,45.72
2022-12-08T09:47:35.538Z,45.82
2022-12-08T09:50:09.825Z,45.57
2022-12-08T09:53:17.979Z,45.46
2022-12-08T09:56:17.377Z,45.52
2022-12-08T09:58:48.449Z,45.54
2022-12-08T10:01:16.666Z,45.81
2022-12-08T10:03:44.571Z,45.74
2022-12-08T10:06:37.390Z,45.44
2022-12-08T10:09:23.288Z,45.44
2022-12-08T10:11:55.954Z,45.78
2022-12-08T10:14:43.859Z,45.30
2022-12-08T10:17:30.906Z,45.51
2022-12-08T10:20:04.084Z,45.33
2022-12-08T10:22:37.602Z,45.32
2022-12-08T10:25:23.323Z,45.65
2022-12-08T10:27:54.053Z,45.44
2022-12-08T10:30:22.331Z,45.45
2022-12-08T10:32:52.901Z,45.18
2022-12-08T10:35:22.830Z,45.16
2022-12-08T10:37:58.678Z,45.36
2022-12-08T10:40:39.070Z,45.01
2022-12-08T10:43:17.631Z,45.30
2022-12-08T10:45:45.347Z,45.46
2022-12-08T10:48:19.136Z,45.44
2022-12-08T10:50:54.315Z,45.43
2022-12-08T10:53:29.108Z,45.16
2022-12-08T10:56:02.465Z,45.38
2022-12-08T10:58:30.213Z,45.31
2022-12-08T11:01:10.851Z,45.53
2022-12-08T11:03:50.073Z,45.39
2022-12-08T11:06:21.974Z,45.07
2022-12-08T11:08:53.010Z,45.17
2022-12-08T11:11:29.005Z,45.63
2022-12-08T11:13:57.128Z,45.07
2022-12-08T11:16:25.198Z,45.72
2022-12-08T11:18:57.321Z,45.30
2022-12-08T11:21:36.805Z,45.45
2022-12-08T11:24:32.290Z,45.51
2022-12-08T11:27:05.209Z,45.53
2022-12-08T11:29:35.288Z,45.54
2022-12-08T11:32:08.005Z,46.05
2022-12-08T11:34:45.721Z,46.12
2022-12-08T11:37:47.030Z,46.01
2022-12-08T11:40:23.512Z,46.26
2022-12-08T11:43:09.515Z,46.35
2022-12-08T11:45:37.060Z,46.47
2022-12-08T11:48:25.508Z,46.12
2022-12-08T11:51:17.126Z,46.35
2022-12-08T11:54:06.250Z,46.13
2022-12-08T11:57:03.582Z,45.98
2022-12-08T11:59:38.425Z,46.36
2022-12-08T12:02:12.504Z,46.12
2022-12-08T12:04:45.961Z,46.19
2022-12-08T12:07:26.122Z,46.26
2022-12-08T12:10:06.323Z,45.99
2022-12-08T12:12:59.362Z,46.32
2022-12-08T12:15:49.926Z,46.18
2022-12-08T12:18:46.548Z,46.33
2022-12-08T12:21:18.410Z,45.98
2022-12-08T12:23:54.494Z,46.43
2022-12-08T12:26:37.180Z,46.43
2022-12-08T12:29:16.002Z,46.35
2022-12-08T12:31:48.807Z,46.37
2022-12-08T12:34:21.693Z,46.43
2022-12-08T12:37:13.082Z,46.16
2022-12-08T12:39:52.454Z,46.30
2022-12-08T12:42:55.100Z,46.52
2022-12-08T12:45:22.500Z,46.18
2022-12-08T12:47:57.184Z,46.04
2022-12-08T12:50:33.777Z,45.95
2022-12-08T12:53:26.108Z,45.97
2022-12-08T12:56:01.428Z,46.02
2022-12-08T12:58:28.995Z,46.25
2022-12-08T13:01:08.668Z,46.41
2022-12-08T13:03:39.009Z,46.42
2022-12-08T13:06:14.160Z,45.94
2022-12-08T13:08:51.310Z,46.27
2022-12-08T13:11:19.193Z,46.36
2022-12-08T13:14:03.226Z,46.50
2022-12-08T13:16:39.672Z,46.40
2022-12-08T13:19:16.083Z,46.33
2022-12-08T13:21:43.589Z,46.42
2022-12-08T13:24:13.693Z,46.47
2022-12-08T13:26:45.800Z,46.12
2022-12-08T13:29:16.333Z,46.16
2022-12-08T13:31:50.526Z,46.11
2022-12-08T13:34:42.333Z,46.58
2022-12-08T13:37:13.665Z,46.43
2022-12-08T13:40:11.183Z,46.60
2022-12-08T13:43:11.065Z,46.30
2022-12-08T13:46:52.528Z,46.37
2022-12-08T13:49:52.727Z,46.29
2022-12-08T13:57:27.358Z,46.54
2022-12-08T13:59:59.591Z,46.50
2022-12-08T14:02:43.764Z,46.41
2022-12-08T14:05:19.559Z,46.50
2022-12-08T14:07:53.342Z,46.02
2022-12-08T14:10:27.443Z,46.09
2022-12-08T14:13:04.142Z,46.25
2022-12-08T14:15:38.119Z,46.44
2022-12-08T14:18:21.287Z,46.26
2022-12-08T14:21:20.397Z,46.32
2022-12-08T14:23:48.113Z,46.22
2022-12-08T14:26:15.512Z,46.24
2022-12-08T14:28:45.310Z,46.77
2022-12-08T14:31:14.750Z,46.40
2022-12-08T14:33:43.077Z,46.40
2022-12-08T14:36:12.361Z,46.66
2022-12-08T14:38:40.038Z,46.88
2022-12-08T14:41:11.728Z,46.98
2022-12-08T14:43:41.007Z,47.08
2022-12-08T14:46:22.830Z,47.01
2022-12-08T14:48:50.469Z,47.14
2022-12-08T14:51:23.720Z,46.69
2022-12-08T14:53:58.914Z,46.72
2022-12-08T14:56:40.523Z,47.10
2022-12-08T14:59:19.155Z,46.64
2022-12-08T15:01:49.023Z,46.98
2022-12-08T15:04:27.239Z,47.15
2022-12-08T15:07:04.878Z,46.82
2022-12-08T15:09:37.613Z,46.85
2022-12-08T15:12:06.790Z,46.99
2022-12-08T15:14:37.394Z,46.57
2022-12-08T15:17:40.134Z,46.98
2022-12-08T15:20:43.142Z,47.12
2022-12-08T15:23:24.815Z,46.83
2022-12-08T15:25:52.869Z,46.71
2022-12-08T15:28:28.127Z,47.12
2022-12-08T15:30:58.805Z,46.66
2022-12-08T15:33:27.477Z,46.67
2022-12-08T15:35:55.008Z,46.70
2022-12-08T15:38:25.185Z,46.95
2022-12-08T15:40:58.838Z,46.94
2022-12-08T15:43:27.330Z,46.71
2022-12-08T15:45:59.400Z,46.67
2022-12-08T15:48:29.624Z,47.02
2022-12-08T15:50:57.714Z,46.89
2022-12-08T15:53:26.085Z,46.89
2022-12-08T15:56:25.722Z,46.64
2022-12-08T15:58:57.983Z,47.11
2022-12-08T16:01:26.686Z,46.80
2022-12-08T16:04:47.494Z,47.19
2022-12-08T16:09:38.357Z,46.52
2022-12-08T16:13:13.578Z,46.54
2022-12-08T16:18:13.985Z,45.97
2022-12-08T16:21:08.064Z,46.17
2022-12-08T16:23:42.314Z,46.23
2022-12-08T16:29:22.638Z,45.77
2022-12-08T16:31:50.419Z,46.10
2022-12-08T16:34:17.841Z,45.68
2022-12-08T16:36:45.268Z,45.69
2022-12-08T16:39:14.071Z,46.24
2022-12-08T16:42:00.350Z,46.00
2022-12-08T16:44:28.105Z,46.00
2022-12-08T16:46:55.506Z,45.78
2022-12-08T16:49:22.917Z,46.15
2022-12-08T16:51:50.356Z,45.69
2022-12-08T16:54:17.786Z,45.68
2022-12-08T16:56:45.239Z,45.63
2022-12-08T16:59:12.697Z,45.74
2022-12-08T17:01:40.567Z,45.89
2022-12-08T17:04:30.566Z,45.95
2022-12-08T17:06:55.541Z,46.20
2022-12-08T17:09:22.975Z,46.19
2022-12-08T17:11:50.456Z,46.26
2022-12-08T17:14:18.251Z,46.41
2022-12-08T17:17:02.453Z,46.21
2022-12-08T17:19:30.061Z,46.44
2022-12-08T17:21:57.551Z,46.38
2022-12-08T17:24:29.004Z,46.26
2022-12-08T17:27:04.225Z,45.79
2022-12-08T17:29:32.932Z,45.71
2022-12-08T17:32:00.827Z,46.08
2022-12-08T17:34:28.338Z,46.04
2022-12-08T17:36:56.057Z,45.82
2022-12-08T17:39:23.692Z,46.07
2022-12-08T17:41:51.240Z,45.85
2022-12-08T17:44:19.789Z,45.90
2022-12-08T17:46:52.526Z,45.89
2022-12-08T17:49:23.803Z,45.44
2022-12-08T17:51:54.350Z,45.49
2022-12-08T17:54:22.042Z,45.77
2022-12-08T17:56:49.501Z,45.53
2022-12-08T17:59:17.377Z,45.86
2022-12-08T18:01:45.038Z,45.83
2022-12-08T18:04:13.581Z,45.56
2022-12-08T18:06:41.099Z,45.49
2022-12-08T18:09:08.775Z,45.79
2022-12-08T18:11:37.089Z,45.61
2022-12-08T18:14:10.476Z,45.72
2022-12-08T18:16:41.174Z,45.51
2022-12-08T18:19:09.621Z,45.33
2022-12-08T18:21:37.521Z,45.11
2022-12-08T18:24:05.715Z,45.81
2022-12-08T18:26:33.688Z,45.56
2022-12-08T18:29:01.457Z,45.74
2022-12-08T18:31:29.055Z,45.32
2022-12-08T18:33:56.515Z,45.50
2022-12-08T18:36:25.616Z,45.45
2022-12-08T18:38:53.460Z,45.45
2022-12-08T18:41:26.174Z,45.52
2022-12-08T18:43:55.362Z,45.14
2022-12-08T18:46:23.714Z,45.38
2022-12-08T18:48:52.021Z,45.07
2022-12-08T18:51:22.453Z,45.41
2022-12-08T18:53:51.628Z,45.40
2022-12-08T18:56:26.712Z,45.28
2022-12-08T18:59:01.313Z,44.86
2022-12-08T19:01:31.932Z,45.42
2022-12-08T19:06:48.258Z,45.38
2022-12-08T19:09:15.940Z,45.38
2022-12-08T19:11:44.058Z,45.64
2022-12-08T19:14:11.665Z,45.35
2022-12-08T19:16:39.175Z,45.38
2022-12-08T19:19:06.668Z,45.84
2022-12-08T19:21:34.200Z,45.89
2022-12-08T19:24:01.675Z,45.68
2022-12-08T19:26:29.329Z,45.61
2022-12-08T19:28:57.881Z,45.67
2022-12-08T19:31:25.691Z,45.25
2022-12-08T19:33:53.466Z,45.66
2022-12-08T19:36:22.292Z,45.45
2022-12-08T19:39:09.176Z,45.43
2022-12-08T19:41:55.854Z,45.66
2022-12-08T19:44:32.894Z,45.30
2022-12-08T19:47:01.613Z,45.57
2022-12-08T19:49:29.603Z,45.40
2022-12-08T19:51:57.315Z,45.43
2022-12-08T19:54:25.105Z,45.57
2022-12-08T19:56:52.762Z,45.88
2022-12-08T19:59:20.482Z,46.01
2022-12-08T20:01:48.515Z,45.73
2022-12-08T20:04:18.560Z,45.71
2022-12-08T20:06:46.904Z,45.92
2022-12-08T20:09:14.896Z,45.83
2022-12-08T20:11:42.621Z,45.70
2022-12-08T20:14:10.036Z,45.52
2022-12-08T20:16:37.833Z,45.63
2022-12-08T20:19:05.449Z,46.12
2022-12-08T20:21:32.909Z,46.17
2022-12-08T20:24:00.339Z,46.12
2022-12-08T20:26:28.047Z,45.77
2022-12-08T20:28:55.763Z,45.91
2022-12-08T20:31:26.401Z,46.06
2022-12-08T20:33:54.828Z,45.94
2022-12-08T20:36:23.200Z,46.07
2022-12-08T20:38:52.942Z,46.00
2022-12-08T20:41:23.573Z,46.23
2022-12-08T20:43:52.499Z,46.30
2022-12-08T20:46:21.653Z,45.92
2022-12-08T20:48:49.856Z,45.99
2022-12-08T20:51:19.638Z,45.96
2022-12-08T20:53:48.213Z,46.37
2022-12-08T20:56:21.365Z,45.89
2022-12-08T20:58:50.669Z,45.93
2022-12-08T21:01:22.093Z,45.84
2022-12-08T21:03:51.561Z,45.78
2022-12-08T21:06:24.185Z,45.84
2022-12-08T21:08:52.204Z,46.03
2022-12-08T21:11:20.549Z,45.83
2022-12-08T21:13:48.820Z,45.62
2022-12-08T21:16:17.712Z,46.12
2022-12-08T21:18:46.080Z,45.81
2022-12-08T21:21:15.462Z,45.57
2022-12-08T21:23:44.101Z,45.84
2022-12-08T21:26:17.885Z,46.29
2022-12-08T21:28:47.590Z,45.87
2022-12-08T21:31:18.318Z,45.73
2022-12-08T21:33:46.118Z,45.85
2022-12-08T21:36:16.301Z,46.10
2022-12-08T21:38:44.582Z,46.29
2022-12-08T21:41:14.834Z,46.32
2022-12-08T21:43:43.313Z,46.53
2022-12-08T21:46:16.744Z,46.28
2022-12-08T21:48:44.480Z,47.79
2022-12-08T21:51:12.313Z,48.37
2022-12-08T21:53:39.881Z,48.12
2022-12-08T21:56:10.692Z,48.37
2022-12-08T21:58:39.802Z,48.62
2022-12-08T22:01:09.627Z,48.74
2022-12-08T22:03:39.186Z,48.74
2022-12-08T22:06:08.836Z,48.61
2022-12-08T22:08:37.322Z,48.52
2022-12-08T22:11:06.392Z,48.76
2022-12-08T22:13:40.531Z,49.13
2022-12-08T22:16:11.386Z,48.81
2022-12-08T22:18:39.230Z,48.86
2022-12-08T22:21:17.192Z,48.78
2022-12-08T22:23:44.939Z,48.85
2022-12-08T22:26:13.079Z,49.07
2022-12-08T22:28:42.891Z,48.83
2022-12-08T22:31:19.665Z,48.83
2022-12-08T22:33:47.788Z,48.76
2022-12-08T22:36:24.551Z,48.70
2022-12-08T22:38:53.389Z,48.68
2022-12-08T22:41:21.668Z,48.72
2022-12-08T22:43:50.275Z,49.22
2022-12-08T22:46:20.649Z,49.10
2022-12-08T22:48:48.723Z,49.38
2022-12-08T22:51:16.616Z,49.46
2022-12-08T22:53:44.526Z,49.59
2022-12-08T22:56:13.456Z,49.43
2022-12-08T22:58:42.265Z,49.50
2022-12-08T23:01:24.602Z,49.11
2022-12-08T23:03:52.263Z,49.57
2022-12-08T23:06:20.388Z,49.14
2022-12-08T23:08:48.506Z,49.33
2022-12-08T23:11:16.565Z,49.23
2022-12-08T23:13:44.223Z,49.27
2022-12-08T23:16:12.060Z,49.09
2022-12-08T23:18:44.947Z,48.76
2022-12-08T23:21:16.416Z,49.14
2022-12-08T23:23:44.160Z,49.13
2022-12-08T23:26:21.985Z,49.03
2022-12-08T23:28:50.079Z,48.76
2022-12-08T23:31:18.858Z,49.08
2022-12-08T23:33:46.794Z,48.73
2022-12-08T23:36:16.029Z,49.00
2022-12-08T23:38:43.764Z,49.10
2022-12-08T23:41:13.588Z,48.76
2022-12-08T23:43:45.904Z,48.74
2022-12-08T23:46:15.249Z,48.77
2022-12-08T23:48:43.303Z,48.91
2022-12-08T23:51:11.666Z,49.13
2022-12-08T23:53:40.291Z,48.68
2022-12-08T23:56:11.794Z,49.07
2022-12-08T23:58:40.732Z,48.76
